createdAt,value
2023-05-14T00:00:07.998Z,11.30
2023-05-14T00:03:01.513Z,12.90
2023-05-14T00:05:35.764Z,13.40
2023-05-14T00:08:10.254Z,13.50
2023-05-14T00:10:44.113Z,13.10
2023-05-14T00:13:17.918Z,13.80
2023-05-14T00:15:52.187Z,13.30
2023-05-14T00:18:25.684Z,13.70
2023-05-14T00:20:59.292Z,11.60
2023-05-14T00:23:32.900Z,16.90
2023-05-14T00:26:06.876Z,13.10
2023-05-14T00:28:40.503Z,13.20
2023-05-14T00:31:14.585Z,15.10
2023-05-14T00:33:47.977Z,15.00
2023-05-14T00:36:21.935Z,12.00
2023-05-14T00:38:55.526Z,15.10
2023-05-14T00:41:28.970Z,11.80
2023-05-14T00:44:02.866Z,12.50
2023-05-14T00:46:36.456Z,13.80
2023-05-14T00:49:10.241Z,14.30
2023-05-14T00:51:47.212Z,12.80
2023-05-14T00:54:21.786Z,12.10
2023-05-14T00:56:55.723Z,13.30
2023-05-14T00:59:29.416Z,13.70
2023-05-14T01:02:03.286Z,12.60
2023-05-14T01:04:38.166Z,13.80
2023-05-14T01:07:22.985Z,13.90
2023-05-14T01:10:01.942Z,15.80
2023-05-14T01:15:14.001Z,16.10
2023-05-14T01:17:52.259Z,14.70
2023-05-14T01:20:27.399Z,13.20
2023-05-14T01:23:01.265Z,14.40
2023-05-14T01:25:35.605Z,15.10
2023-05-14T01:28:15.176Z,12.80
2023-05-14T01:30:59.529Z,13.80
2023-05-14T01:33:35.463Z,13.20
2023-05-14T01:36:10.026Z,12.50
2023-05-14T01:38:46.441Z,13.10
2023-05-14T01:41:22.981Z,13.20
2023-05-14T01:43:56.709Z,14.40
2023-05-14T01:46:32.726Z,13.50
2023-05-14T01:49:06.570Z,14.40
2023-05-14T01:51:40.368Z,15.10
2023-05-14T01:54:14.227Z,14.40
2023-05-14T01:56:48.145Z,15.70
2023-05-14T01:59:21.646Z,13.80
2023-05-14T02:01:55.057Z,15.30
2023-05-14T02:04:28.533Z,13.80
2023-05-14T02:07:02.363Z,14.90
2023-05-14T02:09:36.439Z,15.20
2023-05-14T02:12:11.566Z,14.70
2023-05-14T02:14:45.400Z,14.20
2023-05-14T02:17:18.856Z,16.90
2023-05-14T02:19:52.190Z,13.30
2023-05-14T02:22:26.052Z,16.00
2023-05-14T02:24:59.517Z,15.30
2023-05-14T02:27:33.519Z,15.10
2023-05-14T02:30:07.963Z,12.90
2023-05-14T02:32:41.468Z,14.60
2023-05-14T02:35:15.332Z,14.50
2023-05-14T02:37:49.448Z,15.40
2023-05-14T02:40:23.560Z,18.00
2023-05-14T02:42:57.716Z,17.20
2023-05-14T02:45:31.132Z,13.20
2023-05-14T02:48:05.572Z,14.90
2023-05-14T02:50:39.490Z,12.70
2023-05-14T02:53:12.941Z,13.90
2023-05-14T02:55:46.438Z,13.10
2023-05-14T02:58:19.695Z,15.40
2023-05-14T03:01:01.660Z,13.50
2023-05-14T03:03:37.365Z,14.90
2023-05-14T03:06:12.446Z,14.60
2023-05-14T03:08:46.293Z,17.30
2023-05-14T03:11:19.731Z,16.70
2023-05-14T03:13:53.268Z,15.40
2023-05-14T03:16:26.728Z,16.70
2023-05-14T03:19:00.318Z,15.80
2023-05-14T03:21:34.150Z,17.00
2023-05-14T03:24:08.325Z,13.50
2023-05-14T03:26:42.378Z,15.90
2023-05-14T03:29:18.621Z,14.80
2023-05-14T03:31:54.905Z,14.90
2023-05-14T03:34:28.448Z,17.40
2023-05-14T03:37:02.511Z,16.10
2023-05-14T03:39:36.738Z,14.80
2023-05-14T03:42:12.088Z,15.70
2023-05-14T03:44:45.962Z,16.50
2023-05-14T03:47:19.899Z,16.00
2023-05-14T03:49:53.476Z,18.20
2023-05-14T03:52:26.929Z,16.40
2023-05-14T03:55:00.693Z,16.70
2023-05-14T03:57:33.931Z,16.70
2023-05-14T04:00:10.477Z,16.90
2023-05-14T04:02:52.867Z,16.20
2023-05-14T04:05:26.899Z,19.80
2023-05-14T04:08:00.433Z,18.80
2023-05-14T04:10:34.905Z,20.10
2023-05-14T04:13:08.827Z,17.50
2023-05-14T04:15:45.489Z,20.90
2023-05-14T04:18:20.373Z,18.90
2023-05-14T04:20:56.374Z,19.60
2023-05-14T04:23:30.069Z,21.90
2023-05-14T04:26:04.024Z,22.80
2023-05-14T04:28:37.524Z,19.40
2023-05-14T04:31:11.258Z,20.00
2023-05-14T04:33:45.097Z,20.00
2023-05-14T04:36:19.034Z,20.30
2023-05-14T04:38:52.521Z,21.40
2023-05-14T04:41:26.611Z,19.50
2023-05-14T04:44:02.130Z,18.00
2023-05-14T04:46:35.525Z,17.30
2023-05-14T04:49:09.948Z,17.00
2023-05-14T04:51:43.939Z,18.40
2023-05-14T04:54:17.367Z,19.20
2023-05-14T04:56:51.065Z,18.20
2023-05-14T04:59:24.358Z,18.00
2023-05-14T05:01:57.968Z,18.60
2023-05-14T05:04:31.571Z,19.10
2023-05-14T05:07:06.052Z,21.00
2023-05-14T05:09:39.242Z,20.40
2023-05-14T05:12:13.056Z,18.00
2023-05-14T05:14:46.534Z,19.50
2023-05-14T05:17:20.656Z,20.90
2023-05-14T05:19:54.398Z,20.70
2023-05-14T05:22:28.142Z,21.00
2023-05-14T05:25:01.578Z,19.30
2023-05-14T05:27:36.065Z,20.00
2023-05-14T05:30:12.848Z,24.50
2023-05-14T05:32:46.548Z,19.80
2023-05-14T05:35:20.485Z,19.00
2023-05-14T05:37:54.393Z,17.70
2023-05-14T05:40:28.033Z,16.70
2023-05-14T05:43:01.844Z,18.80
2023-05-14T05:45:35.477Z,16.80
2023-05-14T05:48:09.747Z,15.90
2023-05-14T05:50:45.007Z,18.30
2023-05-14T05:53:18.792Z,17.00
2023-05-14T05:55:52.559Z,18.00
2023-05-14T05:58:26.574Z,18.30
2023-05-14T06:01:00.190Z,16.50
2023-05-14T06:03:34.280Z,15.10
2023-05-14T06:06:08.555Z,17.40
2023-05-14T06:08:42.550Z,17.60
2023-05-14T06:11:17.241Z,15.80
2023-05-14T06:13:50.865Z,14.10
2023-05-14T06:16:24.282Z,15.50
2023-05-14T06:18:58.116Z,13.90
2023-05-14T06:21:31.457Z,14.80
2023-05-14T06:24:05.021Z,14.10
2023-05-14T06:26:38.228Z,16.30
2023-05-14T06:29:12.084Z,14.30
2023-05-14T06:31:45.937Z,17.10
2023-05-14T06:34:19.683Z,17.70
2023-05-14T06:36:53.619Z,14.00
2023-05-14T06:39:26.997Z,14.60
2023-05-14T06:42:01.395Z,14.80
2023-05-14T06:44:37.481Z,13.00
2023-05-14T06:47:11.425Z,12.70
2023-05-14T06:49:45.155Z,9.90
2023-05-14T06:52:19.312Z,11.50
2023-05-14T06:54:53.132Z,11.30
2023-05-14T06:57:27.000Z,11.60
2023-05-14T07:00:02.689Z,14.10
2023-05-14T07:02:37.534Z,10.40
2023-05-14T07:05:12.372Z,9.80
2023-05-14T07:07:45.820Z,10.00
2023-05-14T07:10:20.141Z,9.80
2023-05-14T07:12:53.731Z,10.00
2023-05-14T07:15:27.111Z,9.90
2023-05-14T07:18:00.906Z,8.80
2023-05-14T07:20:34.491Z,11.10
2023-05-14T07:23:08.544Z,9.10
2023-05-14T07:25:42.023Z,12.60
2023-05-14T07:28:15.615Z,9.00
2023-05-14T07:30:49.243Z,9.10
2023-05-14T07:33:23.343Z,8.40
2023-05-14T07:35:57.415Z,9.00
2023-05-14T07:38:31.496Z,9.60
2023-05-14T07:41:05.377Z,8.70
2023-05-14T07:43:40.817Z,9.00
2023-05-14T07:46:15.849Z,7.30
2023-05-14T07:48:49.483Z,7.20
2023-05-14T07:51:23.439Z,7.70
2023-05-14T07:53:57.456Z,9.20
2023-05-14T07:56:31.409Z,7.40
2023-05-14T07:59:04.608Z,7.10
2023-05-14T08:01:39.460Z,6.10
2023-05-14T08:04:15.633Z,9.60
2023-05-14T08:06:49.411Z,7.60
2023-05-14T08:09:23.127Z,8.20
2023-05-14T08:11:56.575Z,7.70
2023-05-14T08:14:30.241Z,6.00
2023-05-14T08:17:03.925Z,8.30
2023-05-14T08:19:38.058Z,5.80
2023-05-14T08:22:11.717Z,6.60
2023-05-14T08:24:45.119Z,8.10
2023-05-14T08:27:18.935Z,6.60
2023-05-14T08:29:52.924Z,9.40
2023-05-14T08:32:26.806Z,9.00
2023-05-14T08:35:00.768Z,6.60
2023-05-14T08:37:34.625Z,8.70
2023-05-14T08:40:10.253Z,8.30
2023-05-14T08:42:45.333Z,14.60
2023-05-14T08:45:21.962Z,7.10
2023-05-14T08:47:56.463Z,8.00
2023-05-14T08:50:31.595Z,6.10
2023-05-14T08:53:05.360Z,6.20
2023-05-14T08:55:39.694Z,6.70
2023-05-14T08:58:13.590Z,8.50
2023-05-14T09:00:48.169Z,7.20
2023-05-14T09:03:22.166Z,6.80
2023-05-14T09:05:57.065Z,6.00
2023-05-14T09:08:33.767Z,4.50
2023-05-14T09:11:07.563Z,5.80
2023-05-14T09:13:42.230Z,5.90
2023-05-14T09:16:16.820Z,6.40
2023-05-14T09:18:51.041Z,5.80
2023-05-14T09:21:24.925Z,5.50
2023-05-14T09:24:00.542Z,7.20
2023-05-14T09:26:36.099Z,4.90
2023-05-14T09:29:09.697Z,6.20
2023-05-14T09:31:43.495Z,5.20
2023-05-14T09:34:28.152Z,5.20
2023-05-14T09:37:03.180Z,6.80
2023-05-14T09:39:38.776Z,4.50
2023-05-14T09:42:12.744Z,5.30
2023-05-14T09:44:47.718Z,6.10
2023-05-14T09:47:21.468Z,5.30
2023-05-14T09:49:55.890Z,5.40
2023-05-14T09:52:30.107Z,3.90
2023-05-14T09:55:04.476Z,9.20
2023-05-14T09:57:38.487Z,5.80
2023-05-14T10:00:14.470Z,5.30
2023-05-14T10:02:50.081Z,6.20
2023-05-14T10:05:25.131Z,9.30
2023-05-14T10:08:01.063Z,6.00
2023-05-14T10:10:37.291Z,7.20
2023-05-14T10:13:15.337Z,6.00
2023-05-14T10:15:58.682Z,8.10
2023-05-14T10:18:38.160Z,5.80
2023-05-14T10:21:12.616Z,4.10
2023-05-14T10:23:46.635Z,5.10
2023-05-14T10:26:22.410Z,8.80
2023-05-14T10:28:58.096Z,6.10
2023-05-14T10:31:54.030Z,5.40
2023-05-14T10:34:44.360Z,7.50
2023-05-14T10:37:20.089Z,5.70
2023-05-14T10:39:55.302Z,6.20
2023-05-14T10:42:35.695Z,6.20
2023-05-14T10:45:11.900Z,4.70
2023-05-14T10:47:47.205Z,4.90
2023-05-14T10:50:24.376Z,5.80
2023-05-14T10:52:59.382Z,4.40
2023-05-14T10:55:33.455Z,6.20
2023-05-14T10:58:08.090Z,6.60
2023-05-14T11:00:43.147Z,8.40
2023-05-14T11:03:17.486Z,5.80
2023-05-14T11:05:51.605Z,8.20
2023-05-14T11:08:29.406Z,5.10
2023-05-14T11:13:35.790Z,5.60
2023-05-14T11:18:47.247Z,5.20
2023-05-14T11:21:22.500Z,4.30
2023-05-14T11:23:58.179Z,6.60
2023-05-14T11:26:33.236Z,4.20
2023-05-14T11:29:08.472Z,6.00
2023-05-14T11:31:42.425Z,5.50
2023-05-14T11:34:16.246Z,4.90
2023-05-14T11:36:49.761Z,6.90
2023-05-14T11:39:23.758Z,5.30
2023-05-14T11:41:57.431Z,3.50
2023-05-14T11:44:31.125Z,5.80
2023-05-14T11:47:05.422Z,4.40
2023-05-14T11:49:39.024Z,8.20
2023-05-14T11:52:14.629Z,6.20
2023-05-14T11:54:49.928Z,4.80
2023-05-14T11:57:24.235Z,5.70
2023-05-14T12:00:00.523Z,7.50
2023-05-14T12:02:35.241Z,6.90
2023-05-14T12:05:14.615Z,6.60
2023-05-14T12:07:49.655Z,4.60
2023-05-14T12:10:23.727Z,5.40
2023-05-14T12:12:57.460Z,4.40
2023-05-14T12:15:31.490Z,4.50
2023-05-14T12:18:22.917Z,3.80
2023-05-14T12:21:03.863Z,5.80
2023-05-14T12:23:40.269Z,4.90
2023-05-14T12:26:14.053Z,6.80
2023-05-14T12:28:51.154Z,5.00
2023-05-14T12:31:32.216Z,6.70
2023-05-14T12:34:06.273Z,6.10
2023-05-14T12:36:39.848Z,8.50
2023-05-14T12:39:13.873Z,6.60
2023-05-14T12:41:47.373Z,6.00
2023-05-14T12:44:22.993Z,8.40
2023-05-14T12:46:57.574Z,6.10
2023-05-14T12:49:31.472Z,6.70
2023-05-14T12:52:22.824Z,4.10
2023-05-14T12:54:59.628Z,7.30
2023-05-14T12:57:35.842Z,4.80
2023-05-14T13:00:14.184Z,6.20
2023-05-14T13:02:48.892Z,4.80
2023-05-14T13:05:23.470Z,6.30
2023-05-14T13:08:00.819Z,6.10
2023-05-14T13:10:35.061Z,5.60
2023-05-14T13:13:08.743Z,4.00
2023-05-14T13:15:42.252Z,5.60
2023-05-14T13:18:15.977Z,5.80
2023-05-14T13:20:49.545Z,5.90
2023-05-14T13:23:23.511Z,5.30
2023-05-14T13:25:57.335Z,6.40
2023-05-14T13:28:31.058Z,4.80
2023-05-14T13:31:12.625Z,4.70
2023-05-14T13:33:46.765Z,13.20
2023-05-14T13:36:20.620Z,5.20
2023-05-14T13:38:54.427Z,5.20
2023-05-14T13:41:30.342Z,7.50
2023-05-14T13:44:04.126Z,5.20
2023-05-14T13:46:38.047Z,5.20
2023-05-14T13:49:12.211Z,5.40
2023-05-14T13:51:46.160Z,5.30
2023-05-14T13:54:20.028Z,4.60
2023-05-14T13:56:53.850Z,6.80
2023-05-14T13:59:28.153Z,5.70
2023-05-14T14:02:02.172Z,5.30
2023-05-14T14:04:36.222Z,5.70
2023-05-14T14:07:09.946Z,5.00
2023-05-14T14:09:43.777Z,5.60
2023-05-14T14:12:17.675Z,7.20
2023-05-14T14:14:51.532Z,8.40
2023-05-14T14:17:25.160Z,6.10
2023-05-14T14:19:59.136Z,4.20
2023-05-14T14:22:33.990Z,6.70
2023-05-14T14:25:09.524Z,6.90
2023-05-14T14:27:43.616Z,4.90
2023-05-14T14:30:18.492Z,6.00
2023-05-14T14:32:53.029Z,8.90
2023-05-14T14:35:27.015Z,7.00
2023-05-14T14:38:00.713Z,6.80
2023-05-14T14:40:36.481Z,8.60
2023-05-14T14:43:10.248Z,7.70
2023-05-14T14:45:48.230Z,3.80
2023-05-14T14:48:34.536Z,5.40
2023-05-14T14:51:09.310Z,5.70
2023-05-14T14:53:43.211Z,5.60
2023-05-14T14:56:16.937Z,4.40
2023-05-14T14:58:50.799Z,4.60
2023-05-14T15:01:24.825Z,5.60
2023-05-14T15:03:59.178Z,6.40
2023-05-14T15:06:32.887Z,5.30
2023-05-14T15:09:08.172Z,5.70
2023-05-14T15:11:42.064Z,8.40
2023-05-14T15:14:15.612Z,4.50
2023-05-14T15:16:51.059Z,6.70
2023-05-14T15:19:25.186Z,8.00
2023-05-14T15:21:59.341Z,8.80
2023-05-14T15:24:33.127Z,5.20
2023-05-14T15:27:07.465Z,8.10
2023-05-14T15:29:41.800Z,8.00
2023-05-14T15:32:15.296Z,6.20
2023-05-14T15:34:49.207Z,4.80
2023-05-14T15:37:22.724Z,4.80
2023-05-14T15:39:56.555Z,7.50
2023-05-14T15:42:30.390Z,4.90
2023-05-14T15:45:03.934Z,4.40
2023-05-14T15:47:37.761Z,6.50
2023-05-14T15:50:13.039Z,5.50
2023-05-14T15:52:47.205Z,4.20
2023-05-14T15:55:21.061Z,5.40
2023-05-14T15:57:54.830Z,5.90
2023-05-14T16:00:28.761Z,6.70
2023-05-14T16:03:02.622Z,9.70
2023-05-14T16:05:36.905Z,6.20
2023-05-14T16:08:11.364Z,6.80
2023-05-14T16:10:45.065Z,6.30
2023-05-14T16:13:18.535Z,5.40
2023-05-14T16:15:52.313Z,5.30
2023-05-14T16:18:26.335Z,5.40
2023-05-14T16:20:59.692Z,7.30
2023-05-14T16:23:33.613Z,6.00
2023-05-14T16:26:08.853Z,7.40
2023-05-14T16:28:43.112Z,6.00
2023-05-14T16:31:17.082Z,6.50
2023-05-14T16:33:50.778Z,5.10
2023-05-14T16:36:24.607Z,4.70
2023-05-14T16:39:07.264Z,4.30
2023-05-14T16:41:41.817Z,8.40
2023-05-14T16:44:15.501Z,6.10
2023-05-14T16:46:49.377Z,7.10
2023-05-14T16:49:23.549Z,4.80
2023-05-14T16:51:57.419Z,6.40
2023-05-14T16:54:31.424Z,4.50
2023-05-14T16:57:06.317Z,7.40
2023-05-14T16:59:39.777Z,5.40
2023-05-14T17:02:14.314Z,5.30
2023-05-14T17:04:48.570Z,7.00
2023-05-14T17:07:23.428Z,5.30
2023-05-14T17:09:58.390Z,6.30
2023-05-14T17:12:32.167Z,6.40
2023-05-14T17:15:06.935Z,5.80
2023-05-14T17:17:40.844Z,4.90
2023-05-14T17:20:16.981Z,5.60
2023-05-14T17:22:51.241Z,6.00
2023-05-14T17:25:26.812Z,5.20
2023-05-14T17:28:00.942Z,8.60
2023-05-14T17:30:34.607Z,4.20
2023-05-14T17:33:08.745Z,6.40
2023-05-14T17:35:44.263Z,5.50
2023-05-14T17:38:17.993Z,5.80
2023-05-14T17:40:51.900Z,6.60
2023-05-14T17:43:25.652Z,5.20
2023-05-14T17:45:59.936Z,4.80
2023-05-14T17:48:33.908Z,4.80
2023-05-14T17:51:07.826Z,5.00
2023-05-14T17:53:42.028Z,4.80
2023-05-14T17:56:17.668Z,6.00
2023-05-14T17:58:52.760Z,7.80
2023-05-14T18:01:29.764Z,6.60
2023-05-14T18:04:06.204Z,6.60
2023-05-14T18:06:41.111Z,4.00
2023-05-14T18:09:17.020Z,5.90
2023-05-14T18:11:54.687Z,6.50
2023-05-14T18:14:30.000Z,7.10
2023-05-14T18:17:04.056Z,5.60
2023-05-14T18:19:37.808Z,8.30
2023-05-14T18:22:12.156Z,7.20
2023-05-14T18:24:47.052Z,5.40
2023-05-14T18:27:26.718Z,6.40
2023-05-14T18:30:01.012Z,5.30
2023-05-14T18:32:35.030Z,4.90
2023-05-14T18:35:09.882Z,5.70
2023-05-14T18:37:46.008Z,9.20
2023-05-14T18:40:21.116Z,7.30
2023-05-14T18:42:57.010Z,6.40
2023-05-14T18:45:32.775Z,7.10
2023-05-14T18:48:07.150Z,7.00
2023-05-14T18:50:43.247Z,7.30
2023-05-14T18:53:17.012Z,12.20
2023-05-14T18:55:51.289Z,5.90
2023-05-14T18:58:28.645Z,8.10
2023-05-14T19:01:03.549Z,6.80
2023-05-14T19:03:41.952Z,6.90
2023-05-14T19:06:16.162Z,6.70
2023-05-14T19:08:50.601Z,8.30
2023-05-14T19:11:25.001Z,6.10
2023-05-14T19:13:59.998Z,8.20
2023-05-14T19:16:34.813Z,8.10
2023-05-14T19:19:09.039Z,5.50
2023-05-14T19:21:45.844Z,9.00
2023-05-14T19:24:21.260Z,7.60
2023-05-14T19:26:56.050Z,7.00
2023-05-14T19:29:33.102Z,8.80
2023-05-14T19:32:08.063Z,7.10
2023-05-14T19:34:41.796Z,6.80
2023-05-14T19:37:19.444Z,8.60
2023-05-14T19:39:54.534Z,10.10
2023-05-14T19:42:28.925Z,8.70
2023-05-14T19:45:03.218Z,8.30
2023-05-14T19:47:37.846Z,8.80
2023-05-14T19:50:14.690Z,9.90
2023-05-14T19:52:48.884Z,8.90
2023-05-14T19:55:26.516Z,13.20
2023-05-14T19:58:01.750Z,8.40
2023-05-14T20:00:37.550Z,10.30
2023-05-14T20:03:11.751Z,10.10
2023-05-14T20:05:47.424Z,9.20
2023-05-14T20:08:22.045Z,10.60
2023-05-14T20:10:57.818Z,11.10
2023-05-14T20:13:33.097Z,12.10
2023-05-14T20:16:08.938Z,10.20
2023-05-14T20:18:43.467Z,9.90
2023-05-14T20:21:18.681Z,7.20
2023-05-14T20:23:53.401Z,9.80
2023-05-14T20:26:27.844Z,10.30
2023-05-14T20:29:02.260Z,9.00
2023-05-14T20:31:36.444Z,9.50
2023-05-14T20:34:10.603Z,10.10
2023-05-14T20:36:44.429Z,7.80
2023-05-14T20:39:19.929Z,9.30
2023-05-14T20:41:53.844Z,9.40
2023-05-14T20:44:27.607Z,10.20
2023-05-14T20:47:01.562Z,10.50
2023-05-14T20:49:35.876Z,10.50
2023-05-14T20:52:10.298Z,8.00
2023-05-14T20:54:44.313Z,8.90
2023-05-14T20:57:18.710Z,18.20
2023-05-14T20:59:52.474Z,8.90
2023-05-14T21:02:26.096Z,10.40
2023-05-14T21:04:59.992Z,9.70
2023-05-14T21:07:33.505Z,11.40
2023-05-14T21:10:07.948Z,8.20
2023-05-14T21:12:42.752Z,10.70
2023-05-14T21:15:17.530Z,10.30
2023-05-14T21:17:51.150Z,8.50
2023-05-14T21:20:25.022Z,9.60
2023-05-14T21:22:59.342Z,11.30
2023-05-14T21:25:33.179Z,12.10
2023-05-14T21:28:06.966Z,10.30
2023-05-14T21:30:40.975Z,9.20
2023-05-14T21:33:15.902Z,9.30
2023-05-14T21:35:49.205Z,10.60
2023-05-14T21:38:23.287Z,9.10
2023-05-14T21:40:56.786Z,8.00
2023-05-14T21:43:30.626Z,7.70
2023-05-14T21:46:04.398Z,8.00
2023-05-14T21:48:40.974Z,9.50
2023-05-14T21:51:15.039Z,9.40
2023-05-14T21:53:49.234Z,9.00
2023-05-14T21:56:23.020Z,9.00
2023-05-14T21:58:57.424Z,10.20
2023-05-14T22:01:32.541Z,13.00
2023-05-14T22:04:08.295Z,7.70
2023-05-14T22:06:42.313Z,12.80
2023-05-14T22:09:15.913Z,12.20
2023-05-14T22:11:49.356Z,8.90
2023-05-14T22:14:23.054Z,7.50
2023-05-14T22:16:57.003Z,8.30
2023-05-14T22:19:31.538Z,10.30
2023-05-14T22:22:05.679Z,8.40
2023-05-14T22:24:39.422Z,9.00
2023-05-14T22:27:12.958Z,9.30
2023-05-14T22:29:46.555Z,11.40
2023-05-14T22:32:20.222Z,11.30
2023-05-14T22:34:53.936Z,9.10
2023-05-14T22:37:27.512Z,9.10
2023-05-14T22:40:02.444Z,8.00
2023-05-14T22:42:36.286Z,13.00
2023-05-14T22:45:12.063Z,9.20
2023-05-14T22:47:45.699Z,7.80
2023-05-14T22:50:19.418Z,7.70
2023-05-14T22:52:53.278Z,11.60
2023-05-14T22:55:27.062Z,8.70
2023-05-14T22:58:01.115Z,7.60
2023-05-14T23:00:34.723Z,7.50
2023-05-14T23:03:08.703Z,7.20
2023-05-14T23:05:42.591Z,7.60
2023-05-14T23:08:16.262Z,9.60
2023-05-14T23:10:49.736Z,7.30
2023-05-14T23:13:23.941Z,11.70
2023-05-14T23:15:57.412Z,11.50
2023-05-14T23:18:31.766Z,8.70
2023-05-14T23:21:05.562Z,8.00
2023-05-14T23:23:39.239Z,8.90
2023-05-14T23:26:13.080Z,11.40
2023-05-14T23:28:47.619Z,7.40
2023-05-14T23:31:21.124Z,10.50
2023-05-14T23:33:54.648Z,8.10
2023-05-14T23:36:28.332Z,8.40
2023-05-14T23:39:02.107Z,8.00
2023-05-14T23:41:35.722Z,11.30
2023-05-14T23:44:09.893Z,7.70
2023-05-14T23:46:43.554Z,6.80
2023-05-14T23:49:17.729Z,9.80
2023-05-14T23:51:51.230Z,8.30
2023-05-14T23:54:24.596Z,9.60
2023-05-14T23:56:58.400Z,7.50
2023-05-14T23:59:32.288Z,6.20
